sensor_id;sensor_type;location;lat;lon;timestamp;P1;durP1;ratioP1;P2;durP2;ratioP2
36547;SDS011;22551;52.206;4.856;2024-02-28T00:03:38;9.55;;;5.57;;
36547;SDS011;22551;52.206;4.856;2024-02-28T00:08:40;8.48;;;4.80;;
36547;SDS011;22551;52.206;4.856;2024-02-28T00:13:43;7.47;;;4.93;;
36547;SDS011;22551;52.206;4.856;2024-02-28T00:18:46;9.20;;;6.03;;
36547;SDS011;22551;52.206;4.856;2024-02-28T00:23:49;9.63;;;4.85;;
36547;SDS011;22551;52.206;4.856;2024-02-28T00:28:51;9.70;;;5.78;;
36547;SDS011;22551;52.206;4.856;2024-02-28T00:33:57;9.70;;;4.97;;
36547;SDS011;22551;52.206;4.856;2024-02-28T00:38:59;11.50;;;6.35;;
36547;SDS011;22551;52.206;4.856;2024-02-28T00:44:04;12.10;;;5.97;;
36547;SDS011;22551;52.206;4.856;2024-02-28T00:49:07;10.57;;;5.38;;
36547;SDS011;22551;52.206;4.856;2024-02-28T00:54:10;9.75;;;6.05;;
36547;SDS011;22551;52.206;4.856;2024-02-28T00:59:12;10.68;;;5.60;;
36547;SDS011;22551;52.206;4.856;2024-02-28T01:04:16;11.13;;;5.82;;
36547;SDS011;22551;52.206;4.856;2024-02-28T01:09:23;12.52;;;6.43;;
36547;SDS011;22551;52.206;4.856;2024-02-28T01:14:29;10.93;;;6.55;;
36547;SDS011;22551;52.206;4.856;2024-02-28T01:19:32;8.90;;;5.45;;
36547;SDS011;22551;52.206;4.856;2024-02-28T01:24:35;12.63;;;6.35;;
36547;SDS011;22551;52.206;4.856;2024-02-28T01:29:37;11.68;;;6.22;;
36547;SDS011;22551;52.206;4.856;2024-02-28T01:34:48;10.75;;;6.47;;
36547;SDS011;22551;52.206;4.856;2024-02-28T01:39:59;17.17;;;6.63;;
36547;SDS011;22551;52.206;4.856;2024-02-28T01:45:01;9.00;;;4.25;;
36547;SDS011;22551;52.206;4.856;2024-02-28T01:50:05;10.70;;;6.00;;
36547;SDS011;22551;52.206;4.856;2024-02-28T01:55:13;11.70;;;5.63;;
36547;SDS011;22551;52.206;4.856;2024-02-28T02:00:18;13.20;;;6.78;;
36547;SDS011;22551;52.206;4.856;2024-02-28T02:05:30;11.75;;;5.85;;
36547;SDS011;22551;52.206;4.856;2024-02-28T02:10:34;10.85;;;5.88;;
36547;SDS011;22551;52.206;4.856;2024-02-28T02:15:39;12.82;;;6.22;;
36547;SDS011;22551;52.206;4.856;2024-02-28T02:20:46;10.93;;;5.78;;
36547;SDS011;22551;52.206;4.856;2024-02-28T02:25:55;8.68;;;5.90;;
36547;SDS011;22551;52.206;4.856;2024-02-28T02:30:58;8.57;;;5.00;;
36547;SDS011;22551;52.206;4.856;2024-02-28T02:36:04;9.32;;;5.57;;
36547;SDS011;22551;52.206;4.856;2024-02-28T02:41:10;6.53;;;3.87;;
36547;SDS011;22551;52.206;4.856;2024-02-28T02:46:13;7.63;;;5.17;;
36547;SDS011;22551;52.206;4.856;2024-02-28T02:51:18;9.70;;;5.45;;
36547;SDS011;22551;52.206;4.856;2024-02-28T02:56:27;8.32;;;5.03;;
36547;SDS011;22551;52.206;4.856;2024-02-28T03:01:31;9.77;;;5.25;;
36547;SDS011;22551;52.206;4.856;2024-02-28T03:06:33;8.57;;;4.90;;
36547;SDS011;22551;52.206;4.856;2024-02-28T03:11:37;11.32;;;5.18;;
36547;SDS011;22551;52.206;4.856;2024-02-28T03:16:43;11.23;;;4.93;;
36547;SDS011;22551;52.206;4.856;2024-02-28T03:21:52;7.80;;;5.60;;
36547;SDS011;22551;52.206;4.856;2024-02-28T03:27:00;9.85;;;6.38;;
36547;SDS011;22551;52.206;4.856;2024-02-28T03:32:05;10.80;;;5.40;;
36547;SDS011;22551;52.206;4.856;2024-02-28T03:37:08;8.93;;;6.00;;
36547;SDS011;22551;52.206;4.856;2024-02-28T03:42:12;9.65;;;6.38;;
36547;SDS011;22551;52.206;4.856;2024-02-28T03:47:20;13.98;;;7.35;;
36547;SDS011;22551;52.206;4.856;2024-02-28T03:52:24;10.57;;;6.07;;
36547;SDS011;22551;52.206;4.856;2024-02-28T03:57:31;11.88;;;6.82;;
36547;SDS011;22551;52.206;4.856;2024-02-28T04:02:34;14.02;;;6.63;;
36547;SDS011;22551;52.206;4.856;2024-02-28T04:07:41;13.82;;;7.55;;
36547;SDS011;22551;52.206;4.856;2024-02-28T04:12:48;15.10;;;6.57;;
36547;SDS011;22551;52.206;4.856;2024-02-28T04:17:50;12.68;;;6.72;;
36547;SDS011;22551;52.206;4.856;2024-02-28T04:22:52;12.25;;;6.90;;
36547;SDS011;22551;52.206;4.856;2024-02-28T04:27:56;11.90;;;7.32;;
36547;SDS011;22551;52.206;4.856;2024-02-28T04:33:09;14.60;;;7.85;;
36547;SDS011;22551;52.206;4.856;2024-02-28T04:38:11;16.95;;;8.25;;
36547;SDS011;22551;52.206;4.856;2024-02-28T04:43:15;12.07;;;7.18;;
36547;SDS011;22551;52.206;4.856;2024-02-28T04:48:19;15.18;;;7.15;;
36547;SDS011;22551;52.206;4.856;2024-02-28T04:53:36;18.17;;;8.95;;
36547;SDS011;22551;52.206;4.856;2024-02-28T04:58:46;14.43;;;8.20;;
36547;SDS011;22551;52.206;4.856;2024-02-28T05:03:54;19.85;;;8.73;;
36547;SDS011;22551;52.206;4.856;2024-02-28T05:08:56;16.95;;;8.77;;
36547;SDS011;22551;52.206;4.856;2024-02-28T05:14:04;13.25;;;7.95;;
36547;SDS011;22551;52.206;4.856;2024-02-28T05:19:09;19.17;;;8.30;;
36547;SDS011;22551;52.206;4.856;2024-02-28T05:24:13;16.42;;;8.38;;
36547;SDS011;22551;52.206;4.856;2024-02-28T05:29:20;15.55;;;8.25;;
36547;SDS011;22551;52.206;4.856;2024-02-28T05:34:22;18.55;;;8.63;;
36547;SDS011;22551;52.206;4.856;2024-02-28T05:39:30;19.08;;;8.93;;
36547;SDS011;22551;52.206;4.856;2024-02-28T05:44:40;21.98;;;8.98;;
36547;SDS011;22551;52.206;4.856;2024-02-28T05:49:45;17.45;;;9.10;;
36547;SDS011;22551;52.206;4.856;2024-02-28T05:54:49;19.48;;;10.07;;
36547;SDS011;22551;52.206;4.856;2024-02-28T05:59:55;20.15;;;9.10;;
36547;SDS011;22551;52.206;4.856;2024-02-28T06:05:00;17.30;;;8.93;;
36547;SDS011;22551;52.206;4.856;2024-02-28T06:10:11;25.02;;;10.95;;
36547;SDS011;22551;52.206;4.856;2024-02-28T06:15:17;22.80;;;10.63;;
36547;SDS011;22551;52.206;4.856;2024-02-28T06:20:25;20.13;;;10.57;;
36547;SDS011;22551;52.206;4.856;2024-02-28T06:25:28;25.15;;;11.10;;
36547;SDS011;22551;52.206;4.856;2024-02-28T06:30:37;21.13;;;10.85;;
36547;SDS011;22551;52.206;4.856;2024-02-28T06:36:01;21.73;;;11.50;;
36547;SDS011;22551;52.206;4.856;2024-02-28T06:41:13;21.52;;;11.77;;
36547;SDS011;22551;52.206;4.856;2024-02-28T06:46:23;26.20;;;11.82;;
36547;SDS011;22551;52.206;4.856;2024-02-28T06:51:25;22.70;;;11.90;;
36547;SDS011;22551;52.206;4.856;2024-02-28T06:56:27;24.65;;;12.82;;
36547;SDS011;22551;52.206;4.856;2024-02-28T07:01:36;28.23;;;13.65;;
36547;SDS011;22551;52.206;4.856;2024-02-28T07:06:40;25.70;;;14.00;;
36547;SDS011;22551;52.206;4.856;2024-02-28T07:11:53;24.40;;;12.07;;
36547;SDS011;22551;52.206;4.856;2024-02-28T07:16:57;24.10;;;13.30;;
36547;SDS011;22551;52.206;4.856;2024-02-28T07:22:17;25.00;;;13.05;;
36547;SDS011;22551;52.206;4.856;2024-02-28T07:27:22;25.45;;;12.90;;
36547;SDS011;22551;52.206;4.856;2024-02-28T07:32:31;22.63;;;12.50;;
36547;SDS011;22551;52.206;4.856;2024-02-28T07:37:44;28.92;;;13.77;;
36547;SDS011;22551;52.206;4.856;2024-02-28T07:42:49;28.40;;;14.45;;
36547;SDS011;22551;52.206;4.856;2024-02-28T07:47:55;24.88;;;13.57;;
36547;SDS011;22551;52.206;4.856;2024-02-28T07:52:57;30.20;;;13.98;;
36547;SDS011;22551;52.206;4.856;2024-02-28T07:57:59;22.20;;;12.93;;
36547;SDS011;22551;52.206;4.856;2024-02-28T08:03:03;22.00;;;12.75;;
36547;SDS011;22551;52.206;4.856;2024-02-28T08:08:09;27.17;;;14.65;;
36547;SDS011;22551;52.206;4.856;2024-02-28T08:13:13;28.25;;;14.82;;
36547;SDS011;22551;52.206;4.856;2024-02-28T08:18:18;24.70;;;13.73;;
36547;SDS011;22551;52.206;4.856;2024-02-28T08:23:21;29.63;;;14.60;;
36547;SDS011;22551;52.206;4.856;2024-02-28T08:28:23;26.33;;;14.30;;
36547;SDS011;22551;52.206;4.856;2024-02-28T08:33:30;26.67;;;15.10;;
36547;SDS011;22551;52.206;4.856;2024-02-28T08:38:32;25.40;;;13.90;;
36547;SDS011;22551;52.206;4.856;2024-02-28T08:43:39;23.10;;;13.45;;
36547;SDS011;22551;52.206;4.856;2024-02-28T08:48:45;20.57;;;12.53;;
36547;SDS011;22551;52.206;4.856;2024-02-28T08:53:48;27.33;;;14.52;;
36547;SDS011;22551;52.206;4.856;2024-02-28T08:59:00;20.75;;;13.40;;
36547;SDS011;22551;52.206;4.856;2024-02-28T09:04:10;26.92;;;14.40;;
36547;SDS011;22551;52.206;4.856;2024-02-28T09:09:14;27.60;;;14.25;;
36547;SDS011;22551;52.206;4.856;2024-02-28T09:19:30;27.15;;;13.57;;
36547;SDS011;22551;52.206;4.856;2024-02-28T09:24:36;28.48;;;12.35;;
36547;SDS011;22551;52.206;4.856;2024-02-28T09:29:40;27.17;;;13.57;;
36547;SDS011;22551;52.206;4.856;2024-02-28T09:34:47;22.83;;;12.52;;
36547;SDS011;22551;52.206;4.856;2024-02-28T09:45:33;20.85;;;12.05;;
36547;SDS011;22551;52.206;4.856;2024-02-28T09:50:43;24.77;;;12.00;;
36547;SDS011;22551;52.206;4.856;2024-02-28T09:55:48;22.60;;;13.20;;
36547;SDS011;22551;52.206;4.856;2024-02-28T10:00:54;28.75;;;13.00;;
36547;SDS011;22551;52.206;4.856;2024-02-28T10:06:06;27.08;;;12.70;;
36547;SDS011;22551;52.206;4.856;2024-02-28T10:11:10;23.67;;;11.75;;
36547;SDS011;22551;52.206;4.856;2024-02-28T10:16:16;21.20;;;12.98;;
36547;SDS011;22551;52.206;4.856;2024-02-28T10:21:20;26.13;;;14.27;;
36547;SDS011;22551;52.206;4.856;2024-02-28T10:26:23;23.02;;;13.15;;
36547;SDS011;22551;52.206;4.856;2024-02-28T10:31:38;26.33;;;14.20;;
36547;SDS011;22551;52.206;4.856;2024-02-28T10:36:44;22.77;;;13.45;;
36547;SDS011;22551;52.206;4.856;2024-02-28T10:41:47;24.05;;;12.98;;
36547;SDS011;22551;52.206;4.856;2024-02-28T10:46:57;21.65;;;12.73;;
36547;SDS011;22551;52.206;4.856;2024-02-28T10:52:04;34.95;;;13.60;;
36547;SDS011;22551;52.206;4.856;2024-02-28T10:57:13;26.58;;;12.35;;
36547;SDS011;22551;52.206;4.856;2024-02-28T11:02:22;23.25;;;10.70;;
36547;SDS011;22551;52.206;4.856;2024-02-28T11:07:27;19.65;;;11.88;;
36547;SDS011;22551;52.206;4.856;2024-02-28T11:12:35;22.75;;;12.50;;
36547;SDS011;22551;52.206;4.856;2024-02-28T11:17:37;22.80;;;12.60;;
36547;SDS011;22551;52.206;4.856;2024-02-28T11:22:41;20.80;;;11.63;;
36547;SDS011;22551;52.206;4.856;2024-02-28T11:27:47;21.55;;;13.40;;
36547;SDS011;22551;52.206;4.856;2024-02-28T11:32:51;22.90;;;11.38;;
36547;SDS011;22551;52.206;4.856;2024-02-28T11:37:56;23.73;;;11.85;;
36547;SDS011;22551;52.206;4.856;2024-02-28T11:42:58;22.52;;;11.48;;
36547;SDS011;22551;52.206;4.856;2024-02-28T11:48:00;20.65;;;11.20;;
36547;SDS011;22551;52.206;4.856;2024-02-28T11:53:05;16.95;;;8.70;;
36547;SDS011;22551;52.206;4.856;2024-02-28T11:58:08;14.43;;;9.32;;
36547;SDS011;22551;52.206;4.856;2024-02-28T12:03:10;14.65;;;8.82;;
36547;SDS011;22551;52.206;4.856;2024-02-28T12:08:13;16.70;;;9.40;;
36547;SDS011;22551;52.206;4.856;2024-02-28T12:13:16;24.63;;;10.38;;
36547;SDS011;22551;52.206;4.856;2024-02-28T12:18:18;17.75;;;8.82;;
36547;SDS011;22551;52.206;4.856;2024-02-28T12:23:22;18.58;;;9.70;;
36547;SDS011;22551;52.206;4.856;2024-02-28T12:28:24;17.23;;;9.70;;
36547;SDS011;22551;52.206;4.856;2024-02-28T12:33:26;19.80;;;10.65;;
36547;SDS011;22551;52.206;4.856;2024-02-28T12:38:30;17.33;;;10.88;;
36547;SDS011;22551;52.206;4.856;2024-02-28T12:43:32;16.75;;;9.82;;
36547;SDS011;22551;52.206;4.856;2024-02-28T12:48:36;18.75;;;11.38;;
36547;SDS011;22551;52.206;4.856;2024-02-28T12:53:40;20.60;;;9.93;;
36547;SDS011;22551;52.206;4.856;2024-02-28T12:58:42;20.77;;;10.27;;
36547;SDS011;22551;52.206;4.856;2024-02-28T13:03:45;18.33;;;9.90;;
36547;SDS011;22551;52.206;4.856;2024-02-28T13:08:50;19.13;;;9.75;;
36547;SDS011;22551;52.206;4.856;2024-02-28T13:13:52;17.90;;;10.13;;
36547;SDS011;22551;52.206;4.856;2024-02-28T13:18:55;19.63;;;11.02;;
36547;SDS011;22551;52.206;4.856;2024-02-28T13:23:58;30.75;;;12.55;;
36547;SDS011;22551;52.206;4.856;2024-02-28T13:29:02;24.23;;;11.32;;
36547;SDS011;22551;52.206;4.856;2024-02-28T13:34:04;21.85;;;11.35;;
36547;SDS011;22551;52.206;4.856;2024-02-28T13:39:08;21.60;;;10.50;;
36547;SDS011;22551;52.206;4.856;2024-02-28T13:49:13;19.25;;;9.68;;
36547;SDS011;22551;52.206;4.856;2024-02-28T13:54:17;14.10;;;7.97;;
36547;SDS011;22551;52.206;4.856;2024-02-28T13:59:20;18.25;;;9.55;;
36547;SDS011;22551;52.206;4.856;2024-02-28T14:04:26;26.77;;;9.50;;
36547;SDS011;22551;52.206;4.856;2024-02-28T14:09:31;21.83;;;9.53;;
36547;SDS011;22551;52.206;4.856;2024-02-28T14:14:36;22.10;;;11.05;;
36547;SDS011;22551;52.206;4.856;2024-02-28T14:19:39;21.48;;;11.10;;
36547;SDS011;22551;52.206;4.856;2024-02-28T14:24:43;21.35;;;11.02;;
36547;SDS011;22551;52.206;4.856;2024-02-28T14:29:45;28.67;;;13.43;;
36547;SDS011;22551;52.206;4.856;2024-02-28T14:34:47;32.63;;;15.32;;
36547;SDS011;22551;52.206;4.856;2024-02-28T14:39:52;36.83;;;13.93;;
36547;SDS011;22551;52.206;4.856;2024-02-28T14:44:54;36.92;;;15.45;;
36547;SDS011;22551;52.206;4.856;2024-02-28T14:49:56;25.45;;;13.05;;
36547;SDS011;22551;52.206;4.856;2024-02-28T14:55:00;29.17;;;14.00;;
36547;SDS011;22551;52.206;4.856;2024-02-28T15:05:13;25.13;;;13.05;;
36547;SDS011;22551;52.206;4.856;2024-02-28T15:10:17;33.70;;;16.80;;
36547;SDS011;22551;52.206;4.856;2024-02-28T15:15:20;36.30;;;17.17;;
36547;SDS011;22551;52.206;4.856;2024-02-28T15:20:22;36.00;;;16.17;;
36547;SDS011;22551;52.206;4.856;2024-02-28T15:25:26;34.55;;;16.42;;
36547;SDS011;22551;52.206;4.856;2024-02-28T15:30:30;32.13;;;14.65;;
36547;SDS011;22551;52.206;4.856;2024-02-28T15:35:32;33.17;;;15.05;;
36547;SDS011;22551;52.206;4.856;2024-02-28T15:40:36;36.45;;;15.65;;
36547;SDS011;22551;52.206;4.856;2024-02-28T15:45:39;25.63;;;14.27;;
36547;SDS011;22551;52.206;4.856;2024-02-28T15:50:43;29.27;;;13.85;;
36547;SDS011;22551;52.206;4.856;2024-02-28T15:55:49;29.27;;;13.48;;
36547;SDS011;22551;52.206;4.856;2024-02-28T16:00:53;27.08;;;13.70;;
36547;SDS011;22551;52.206;4.856;2024-02-28T16:05:55;25.40;;;13.45;;
36547;SDS011;22551;52.206;4.856;2024-02-28T16:10:59;26.25;;;13.63;;
36547;SDS011;22551;52.206;4.856;2024-02-28T16:16:02;27.40;;;12.97;;
36547;SDS011;22551;52.206;4.856;2024-02-28T16:21:07;30.08;;;14.40;;
36547;SDS011;22551;52.206;4.856;2024-02-28T16:26:19;24.15;;;12.25;;
36547;SDS011;22551;52.206;4.856;2024-02-28T16:31:24;24.00;;;12.75;;
36547;SDS011;22551;52.206;4.856;2024-02-28T16:36:26;26.27;;;11.95;;
36547;SDS011;22551;52.206;4.856;2024-02-28T16:41:30;23.05;;;11.10;;
36547;SDS011;22551;52.206;4.856;2024-02-28T16:46:32;26.00;;;12.43;;
36547;SDS011;22551;52.206;4.856;2024-02-28T16:51:35;22.27;;;12.25;;
36547;SDS011;22551;52.206;4.856;2024-02-28T16:56:39;22.23;;;11.38;;
36547;SDS011;22551;52.206;4.856;2024-02-28T17:01:50;20.15;;;10.85;;
36547;SDS011;22551;52.206;4.856;2024-02-28T17:06:59;21.20;;;10.88;;
36547;SDS011;22551;52.206;4.856;2024-02-28T17:12:05;20.02;;;10.73;;
36547;SDS011;22551;52.206;4.856;2024-02-28T17:17:08;24.93;;;11.77;;
36547;SDS011;22551;52.206;4.856;2024-02-28T17:22:11;22.92;;;12.05;;
36547;SDS011;22551;52.206;4.856;2024-02-28T17:27:15;24.13;;;12.70;;
36547;SDS011;22551;52.206;4.856;2024-02-28T17:32:18;26.15;;;12.30;;
36547;SDS011;22551;52.206;4.856;2024-02-28T17:37:20;24.15;;;12.63;;
36547;SDS011;22551;52.206;4.856;2024-02-28T17:42:23;23.77;;;12.35;;
36547;SDS011;22551;52.206;4.856;2024-02-28T17:47:25;21.45;;;11.35;;
36547;SDS011;22551;52.206;4.856;2024-02-28T17:52:29;25.88;;;12.88;;
36547;SDS011;22551;52.206;4.856;2024-02-28T17:57:32;25.88;;;13.20;;
36547;SDS011;22551;52.206;4.856;2024-02-28T18:02:35;24.92;;;11.80;;
36547;SDS011;22551;52.206;4.856;2024-02-28T18:07:41;26.38;;;11.32;;
36547;SDS011;22551;52.206;4.856;2024-02-28T18:12:44;22.70;;;11.55;;
36547;SDS011;22551;52.206;4.856;2024-02-28T18:17:51;26.52;;;11.57;;
36547;SDS011;22551;52.206;4.856;2024-02-28T18:22:54;20.42;;;10.68;;
36547;SDS011;22551;52.206;4.856;2024-02-28T18:27:58;23.60;;;11.52;;
36547;SDS011;22551;52.206;4.856;2024-02-28T18:33:03;20.70;;;11.00;;
36547;SDS011;22551;52.206;4.856;2024-02-28T18:38:06;22.77;;;10.48;;
36547;SDS011;22551;52.206;4.856;2024-02-28T18:48:18;20.08;;;11.38;;
36547;SDS011;22551;52.206;4.856;2024-02-28T18:53:20;19.02;;;9.80;;
36547;SDS011;22551;52.206;4.856;2024-02-28T18:58:26;19.85;;;9.77;;
36547;SDS011;22551;52.206;4.856;2024-02-28T19:03:36;23.23;;;11.45;;
36547;SDS011;22551;52.206;4.856;2024-02-28T19:08:38;19.92;;;9.75;;
36547;SDS011;22551;52.206;4.856;2024-02-28T19:13:42;25.05;;;10.68;;
36547;SDS011;22551;52.206;4.856;2024-02-28T19:18:51;18.77;;;9.45;;
36547;SDS011;22551;52.206;4.856;2024-02-28T19:23:59;18.33;;;9.35;;
36547;SDS011;22551;52.206;4.856;2024-02-28T19:29:04;17.85;;;9.43;;
36547;SDS011;22551;52.206;4.856;2024-02-28T19:34:06;14.80;;;8.38;;
36547;SDS011;22551;52.206;4.856;2024-02-28T19:39:13;15.38;;;8.13;;
36547;SDS011;22551;52.206;4.856;2024-02-28T19:44:17;18.23;;;8.57;;
36547;SDS011;22551;52.206;4.856;2024-02-28T19:49:20;10.75;;;6.50;;
36547;SDS011;22551;52.206;4.856;2024-02-28T19:54:24;14.13;;;7.88;;
36547;SDS011;22551;52.206;4.856;2024-02-28T19:59:34;12.18;;;7.97;;
36547;SDS011;22551;52.206;4.856;2024-02-28T20:04:36;15.82;;;7.78;;
36547;SDS011;22551;52.206;4.856;2024-02-28T20:09:39;12.95;;;8.07;;
36547;SDS011;22551;52.206;4.856;2024-02-28T20:14:43;12.65;;;7.13;;
36547;SDS011;22551;52.206;4.856;2024-02-28T20:19:47;11.13;;;7.03;;
36547;SDS011;22551;52.206;4.856;2024-02-28T20:24:49;12.43;;;7.63;;
36547;SDS011;22551;52.206;4.856;2024-02-28T20:29:52;13.70;;;7.43;;
36547;SDS011;22551;52.206;4.856;2024-02-28T20:34:55;10.63;;;6.25;;
36547;SDS011;22551;52.206;4.856;2024-02-28T20:39:59;13.35;;;6.97;;
36547;SDS011;22551;52.206;4.856;2024-02-28T20:45:16;12.18;;;6.95;;
36547;SDS011;22551;52.206;4.856;2024-02-28T20:50:23;11.82;;;5.50;;
36547;SDS011;22551;52.206;4.856;2024-02-28T20:55:36;10.30;;;6.80;;
36547;SDS011;22551;52.206;4.856;2024-02-28T21:00:46;13.10;;;6.68;;
36547;SDS011;22551;52.206;4.856;2024-02-28T21:05:54;13.13;;;6.38;;
36547;SDS011;22551;52.206;4.856;2024-02-28T21:10:56;12.75;;;6.82;;
36547;SDS011;22551;52.206;4.856;2024-02-28T21:16:02;14.85;;;6.03;;
36547;SDS011;22551;52.206;4.856;2024-02-28T21:21:07;13.35;;;6.80;;
36547;SDS011;22551;52.206;4.856;2024-02-28T21:26:16;11.18;;;6.75;;
36547;SDS011;22551;52.206;4.856;2024-02-28T21:31:22;12.32;;;6.57;;
36547;SDS011;22551;52.206;4.856;2024-02-28T21:36:25;13.02;;;6.38;;
36547;SDS011;22551;52.206;4.856;2024-02-28T21:41:27;13.10;;;6.57;;
36547;SDS011;22551;52.206;4.856;2024-02-28T21:46:30;11.63;;;6.88;;
36547;SDS011;22551;52.206;4.856;2024-02-28T21:51:32;13.80;;;6.57;;
36547;SDS011;22551;52.206;4.856;2024-02-28T21:56:37;13.40;;;6.57;;
36547;SDS011;22551;52.206;4.856;2024-02-28T22:01:42;11.25;;;6.25;;
36547;SDS011;22551;52.206;4.856;2024-02-28T22:06:44;11.35;;;5.90;;
36547;SDS011;22551;52.206;4.856;2024-02-28T22:11:50;15.50;;;6.82;;
36547;SDS011;22551;52.206;4.856;2024-02-28T22:16:53;15.35;;;6.38;;
36547;SDS011;22551;52.206;4.856;2024-02-28T22:21:56;14.10;;;7.57;;
36547;SDS011;22551;52.206;4.856;2024-02-28T22:26:59;12.48;;;7.68;;
36547;SDS011;22551;52.206;4.856;2024-02-28T22:32:03;15.95;;;8.75;;
36547;SDS011;22551;52.206;4.856;2024-02-28T22:37:06;16.20;;;7.60;;
36547;SDS011;22551;52.206;4.856;2024-02-28T22:42:08;19.45;;;8.30;;
36547;SDS011;22551;52.206;4.856;2024-02-28T22:47:14;16.93;;;8.83;;
36547;SDS011;22551;52.206;4.856;2024-02-28T22:52:21;20.23;;;9.48;;
36547;SDS011;22551;52.206;4.856;2024-02-28T22:57:26;17.98;;;9.18;;
36547;SDS011;22551;52.206;4.856;2024-02-28T23:02:29;17.33;;;9.25;;
36547;SDS011;22551;52.206;4.856;2024-02-28T23:07:32;17.98;;;9.02;;
36547;SDS011;22551;52.206;4.856;2024-02-28T23:12:36;16.17;;;8.27;;
36547;SDS011;22551;52.206;4.856;2024-02-28T23:17:43;19.35;;;9.10;;
36547;SDS011;22551;52.206;4.856;2024-02-28T23:22:46;18.05;;;9.40;;
36547;SDS011;22551;52.206;4.856;2024-02-28T23:27:49;14.75;;;8.55;;
36547;SDS011;22551;52.206;4.856;2024-02-28T23:32:56;17.27;;;9.15;;
36547;SDS011;22551;52.206;4.856;2024-02-28T23:38:05;18.13;;;9.18;;
36547;SDS011;22551;52.206;4.856;2024-02-28T23:43:07;19.30;;;9.25;;
36547;SDS011;22551;52.206;4.856;2024-02-28T23:48:11;17.75;;;9.55;;
36547;SDS011;22551;52.206;4.856;2024-02-28T23:53:14;16.55;;;9.40;;
36547;SDS011;22551;52.206;4.856;2024-02-28T23:58:25;16.45;;;8.40;;
